Hovedside
METAR-TAF:

METAR-TAF

Lufthavner :

Kuusamo, Finland

Kuusamo lufthavn

breddegrad: 65-58N, lengdegrad: 029-11E, høyde over havet: 262 m

Gjeldene værobservasjon

Denne rapporten ble laget for 14 minutter siden, klokken 22:20 UTC
Vind 3 kt fra Nord-nordøst
Temperatur 13°C
Luftfuktighet 72%
Trykk 1017 hPa
Sikt 10 km eller mer
ingen skyer under 1500 m og ingen bygeskyer

METAR: EFKS 242220Z AUTO 03003KT CAVOK 13/08 Q1017

Tid: 01:34 (22:34 UTC)

Varsel

Denne rapporten ble laget for 14 timer og 12 minutter siden, klokken 08:22 UTC
Varsel gyldig fra 24. klokken 09 UTC til 24. klokken 13 UTC
Vind 6 kt fra Nord-nordøst
Sikt 10 km eller mer
Brutte skyer i en høyde av 2500 ft

TAF: EFKS 240822Z 2409/2413 03006KT 9999 BKN025

Værobservasjoner og værvarsel for over 4000 flyplasser (METAR- og TAF-rapporter).

Tilgjengelige stasjoner er representert av de røde og gule prikkene på kartet.

Hold musepekeren over prikken for å se navnet på stasjonen.

Klikk så for å se værobservasjoner og -varsler.

For å forandre kartet kan du klikke på den grønne knappen med svart kryss for å zoome inn, på den grønne knappen med strek for å zoome ut, eller på de grønne pilene for å se tilstøtende kart.


METAR-TAF: